Página principal
METAR-TAF:

METAR-TAF

Aeroportos :

Kota Bharu, Malásia

latitude: 06-10N, longitude: 102-17E, altura: 5 m

Observação actual do tempo

O boletim foi feito há 49 minutos, às 06:00 UTC
Vento 11 kt de este, variando entre nor-nordeste e sul
Temperatura 30°C
Humidade 70%
Pressão 1013 hPa
Visibilidade 10 km ou mais
Nuvens dispersasa uma altura de 1800 ft

METAR: WMKC 230600Z 08011KT 020V190 9999 SCT018 30/24 Q1013

Hora: 14:49 (06:49 UTC)

Previsão

O boletim foi feito há 1 hora e 49 minutos, às 05:00 UTC
Previsão válida de 23 às 06 UTC a 24 às 06 UTC
Vento 10 kt de este
Visibilidade 10 km ou mais
Poucas nuvensa uma altura de 1800 ft
Tornando-se
de 23 às 10 UTC a 23 às 12 UTC
Poucas nuvensa uma altura de 2000 ft
Tornando-se
de 24 às 00 UTC a 24 às 02 UTC
Poucas nuvensa uma altura de 1800 ft

TAF: WMKC 230500Z 2306/2406 09010KT 9999 FEW018 BECMG 2310/2312 FEW020 BECMG 2400/2402 FEW018

Observações e previsões do tempo de mais de 4000 aeroportos (mensagens METAR e TAF).

As estações disponíveis são os pontos amarelos e vermelhos sobre o mapa.

Mova o rato sobre o mapa para ver o nome da estação.

Depois clique no ponto para visualizar as observações e previsões meteorológicas.

Para alterar o mapa : clique nos botões verdes com uma cruz preta para aumentar o zoom; no botão verde com uma pitada de zoom; ou nas setas verdes para mapas adjacentes.


METAR-TAF: